Stara Zagora, Bulgaria
Current Conditions -  °F | °C
As of 9:00 PM on Wednesday 26 Nov 2014 (Local Time) from LBPD Reporting Station
Broken Clouds Broken Clouds  
Wind Chill: 32°   Ceiling: 2900
Heat Index: 32°   Visibility: 4mi
Dew Point: 30°   Wind: 2mph
Humidity: 93%   Direction: 130°SE
Pressure: 30.27"   Gusts: NA
Location:  42.42°N, 25.63°E
Report Text: LBPD 261800Z 13001MPS 7000 BKN029 00/M01 Q1025 BECMG 5000 BR
Loading
Personal Weather Stations






























Interactive Weather Map New forecast layout! Learn more

10-Day Weather Forecast

Advertisements
Track Severe Weather on mobile